createdAt,value
2022-08-16T00:02:32.343Z,100209.75
2022-08-16T00:05:00.066Z,100207.75
2022-08-16T00:07:29.207Z,100209.97
2022-08-16T00:09:56.932Z,100214.84
2022-08-16T00:12:24.655Z,100216.03
2022-08-16T00:14:56.843Z,100213.84
2022-08-16T00:17:25.492Z,100218.88
2022-08-16T00:19:55.025Z,100213.56
2022-08-16T00:22:25.152Z,100216.03
2022-08-16T00:24:55.865Z,100226.41
2022-08-16T00:27:23.425Z,100226.28
2022-08-16T00:30:00.565Z,100232.47
2022-08-16T00:32:40.153Z,100230.78
2022-08-16T00:35:13.309Z,100236.16
2022-08-16T00:37:56.878Z,100239.41
2022-08-16T00:40:53.493Z,100238.19
2022-08-16T00:43:42.462Z,100241.22
2022-08-16T00:46:35.377Z,100236.59
2022-08-16T00:49:18.822Z,100231.69
2022-08-16T00:51:47.484Z,100234.53
2022-08-16T00:54:26.220Z,100227.69
2022-08-16T00:56:58.419Z,100230.25
2022-08-16T00:59:28.691Z,100235.13
2022-08-16T01:01:56.323Z,100230.97
2022-08-16T01:04:30.063Z,100221.94
2022-08-16T01:07:03.742Z,100236.13
2022-08-16T01:09:37.704Z,100231.31
2022-08-16T01:12:11.158Z,100236.31
2022-08-16T01:14:57.309Z,100232.97
2022-08-16T01:17:25.881Z,100234.81
2022-08-16T01:19:59.002Z,100238.53
2022-08-16T01:22:48.559Z,100244.53
2022-08-16T01:25:23.330Z,100241.69
2022-08-16T01:28:03.772Z,100241.56
2022-08-16T01:30:36.804Z,100241.41
2022-08-16T01:33:14.773Z,100245.41
2022-08-16T01:35:45.990Z,100240.72
2022-08-16T01:38:30.963Z,100237.69
2022-08-16T01:41:01.786Z,100235.19
2022-08-16T01:43:31.409Z,100240.88
2022-08-16T01:46:38.386Z,100237.19
2022-08-16T01:48:58.206Z,100232.84
2022-08-16T01:51:27.082Z,100240.38
2022-08-16T01:53:55.975Z,100233.19
2022-08-16T01:56:30.765Z,100235.00
2022-08-16T01:59:01.603Z,100231.53
2022-08-16T02:01:29.709Z,100235.03
2022-08-16T02:04:11.357Z,100235.03
2022-08-16T02:06:46.051Z,100226.47
2022-08-16T02:09:17.887Z,100235.19
2022-08-16T02:11:53.107Z,100239.84
2022-08-16T02:14:26.602Z,100248.69
2022-08-16T02:16:57.999Z,100242.03
2022-08-16T02:19:58.688Z,100241.34
2022-08-16T02:22:33.588Z,100238.69
2022-08-16T02:25:05.561Z,100231.50
2022-08-16T02:27:32.379Z,100232.50
2022-08-16T02:30:05.271Z,100228.31
2022-08-16T02:32:50.795Z,100235.03
2022-08-16T02:35:23.097Z,100229.47
2022-08-16T02:37:52.283Z,100231.13
2022-08-16T02:40:22.491Z,100234.47
2022-08-16T02:42:50.693Z,100233.66
2022-08-16T02:45:20.753Z,100226.44
2022-08-16T02:50:55.495Z,100231.47
2022-08-16T02:53:18.467Z,100236.66
2022-08-16T02:55:51.572Z,100232.81
2022-08-16T02:58:24.953Z,100228.13
2022-08-16T03:00:56.131Z,100232.97
2022-08-16T03:03:26.917Z,100230.16
2022-08-16T03:06:41.962Z,100231.63
2022-08-16T03:09:11.827Z,100239.00
2022-08-16T03:11:43.350Z,100235.78
2022-08-16T03:14:11.657Z,100237.28
2022-08-16T03:16:42.311Z,100238.47
2022-08-16T03:19:48.608Z,100235.31
2022-08-16T03:22:28.962Z,100234.28
2022-08-16T03:25:01.847Z,100242.59
2022-08-16T03:27:33.004Z,100243.34
2022-08-16T03:30:16.169Z,100251.66
2022-08-16T03:32:51.630Z,100252.84
2022-08-16T03:35:23.666Z,100254.38
2022-08-16T03:38:03.931Z,100249.34
2022-08-16T03:40:43.541Z,100255.69
2022-08-16T03:43:20.221Z,100249.34
2022-08-16T03:45:53.213Z,100249.50
2022-08-16T03:48:36.176Z,100247.56
2022-08-16T03:51:12.956Z,100249.88
2022-08-16T03:54:00.745Z,100249.19
2022-08-16T03:56:30.881Z,100252.81
2022-08-16T03:58:59.513Z,100250.47
2022-08-16T04:01:31.579Z,100250.63
2022-08-16T04:03:58.555Z,100244.94
2022-08-16T04:06:26.805Z,100248.22
2022-08-16T04:08:54.254Z,100251.25
2022-08-16T04:11:23.750Z,100263.00
2022-08-16T04:13:59.443Z,100255.69
2022-08-16T04:16:39.310Z,100264.34
2022-08-16T04:19:31.789Z,100262.84
2022-08-16T04:22:00.902Z,100254.53
2022-08-16T04:24:32.151Z,100261.19
2022-08-16T04:26:59.766Z,100262.84
2022-08-16T04:29:27.825Z,100273.22
2022-08-16T04:32:13.742Z,100268.34
2022-08-16T04:34:42.678Z,100273.78
2022-08-16T04:37:12.453Z,100279.78
2022-08-16T04:39:46.927Z,100285.81
2022-08-16T04:42:26.261Z,100292.06
2022-08-16T04:44:57.464Z,100284.25
2022-08-16T04:47:35.484Z,100287.59
2022-08-16T04:50:10.457Z,100293.72
2022-08-16T04:52:38.310Z,100292.88
2022-08-16T04:55:09.477Z,100297.59
2022-08-16T04:57:37.659Z,100309.72
2022-08-16T05:00:30.479Z,100307.69
2022-08-16T05:02:58.859Z,100303.22
2022-08-16T05:05:32.897Z,100304.03
2022-08-16T05:08:29.654Z,100307.28
2022-08-16T05:11:08.322Z,100306.13
2022-08-16T05:13:41.027Z,100303.22
2022-08-16T05:16:20.062Z,100302.34
2022-08-16T05:18:53.743Z,100310.16
2022-08-16T05:21:24.227Z,100322.75
2022-08-16T05:24:00.190Z,100324.13
2022-08-16T05:26:32.902Z,100313.06
2022-08-16T05:29:03.543Z,100322.81
2022-08-16T05:31:31.703Z,100322.03
2022-08-16T05:34:03.163Z,100318.34
2022-08-16T05:36:33.625Z,100322.72
2022-08-16T05:39:07.846Z,100323.06
2022-08-16T05:41:45.163Z,100306.91
2022-08-16T05:44:24.028Z,100310.22
2022-08-16T05:46:56.390Z,100306.13
2022-08-16T05:49:39.480Z,100301.19
2022-08-16T05:52:13.678Z,100313.63
2022-08-16T05:54:47.566Z,100315.00
2022-08-16T05:57:26.840Z,100313.03
2022-08-16T06:00:13.934Z,100317.91
2022-08-16T06:02:51.429Z,100321.41
2022-08-16T06:05:41.435Z,100339.97
2022-08-16T06:08:08.834Z,100345.75
2022-08-16T06:11:09.738Z,100344.28
2022-08-16T06:13:42.019Z,100340.66
2022-08-16T06:16:18.012Z,100339.16
2022-08-16T06:18:47.130Z,100340.81
2022-08-16T06:21:22.525Z,100335.97
2022-08-16T06:23:54.191Z,100332.81
2022-08-16T06:26:22.722Z,100337.81
2022-08-16T06:28:50.016Z,100335.31
2022-08-16T06:31:27.700Z,100336.66
2022-08-16T06:33:57.426Z,100333.31
2022-08-16T06:36:26.834Z,100335.47
2022-08-16T06:39:23.114Z,100329.13
2022-08-16T06:41:49.813Z,100332.31
2022-08-16T06:44:28.046Z,100337.31
2022-08-16T06:46:58.785Z,100344.84
2022-08-16T06:49:29.637Z,100347.19
2022-08-16T06:52:03.286Z,100359.56
2022-08-16T06:54:36.687Z,100353.38
2022-08-16T06:57:05.387Z,100347.88
2022-08-16T06:59:52.434Z,100354.56
2022-08-16T07:02:32.479Z,100353.38
2022-08-16T07:05:01.804Z,100355.56
2022-08-16T07:07:33.825Z,100357.72
2022-08-16T07:10:08.567Z,100355.72
2022-08-16T07:12:46.915Z,100356.22
2022-08-16T07:15:16.976Z,100360.22
2022-08-16T07:17:46.452Z,100359.22
2022-08-16T07:20:35.565Z,100364.75
2022-08-16T07:23:02.387Z,100363.56
2022-08-16T07:25:47.716Z,100365.38
2022-08-16T07:28:20.575Z,100370.31
2022-08-16T07:30:52.142Z,100371.53
2022-08-16T07:33:51.846Z,100363.22
2022-08-16T07:36:22.131Z,100369.59
2022-08-16T07:38:50.476Z,100370.81
2022-08-16T07:41:18.633Z,100362.59
2022-08-16T07:43:49.828Z,100366.50
2022-08-16T07:46:37.439Z,100380.25
2022-08-16T07:49:12.857Z,100381.38
2022-08-16T07:51:42.275Z,100383.88
2022-08-16T07:54:12.694Z,100384.56
2022-08-16T07:56:50.456Z,100389.97
2022-08-16T07:59:17.349Z,100391.81
2022-08-16T08:01:44.521Z,100397.06
2022-08-16T08:04:13.268Z,100397.06
2022-08-16T08:06:42.917Z,100404.88
2022-08-16T08:09:14.030Z,100405.06
2022-08-16T08:11:59.573Z,100399.34
2022-08-16T08:14:30.480Z,100396.50
2022-08-16T08:17:01.407Z,100401.56
2022-08-16T08:19:30.068Z,100401.53
2022-08-16T08:21:59.138Z,100399.03
2022-08-16T08:24:58.953Z,100399.31
2022-08-16T08:27:27.433Z,100405.19
2022-08-16T08:30:49.295Z,100404.31
2022-08-16T08:33:00.020Z,100407.47
2022-08-16T08:35:30.338Z,100417.50
2022-08-16T08:37:58.747Z,100422.69
2022-08-16T08:40:28.918Z,100410.41
2022-08-16T08:43:00.829Z,100414.75
2022-08-16T08:45:52.695Z,100420.84
2022-08-16T08:48:32.903Z,100421.72
2022-08-16T08:51:09.172Z,100428.97
2022-08-16T08:53:46.980Z,100418.44
2022-08-16T08:56:26.509Z,100423.63
2022-08-16T08:59:12.881Z,100418.03
2022-08-16T09:01:43.183Z,100422.06
2022-08-16T09:04:23.741Z,100420.94
2022-08-16T09:06:50.609Z,100426.44
2022-08-16T09:09:19.311Z,100431.22
2022-08-16T09:12:04.003Z,100430.66
2022-08-16T09:14:39.441Z,100422.06
2022-08-16T09:17:38.231Z,100423.81
2022-08-16T09:20:06.427Z,100434.22
2022-08-16T09:22:34.725Z,100435.75
2022-08-16T09:25:09.906Z,100430.50
2022-08-16T09:27:56.691Z,100430.28
2022-08-16T09:30:33.578Z,100431.75
2022-08-16T09:33:06.737Z,100436.53
2022-08-16T09:35:38.651Z,100436.03
2022-08-16T09:38:08.452Z,100431.66
2022-08-16T09:40:41.745Z,100437.03
2022-08-16T09:43:21.051Z,100423.88
2022-08-16T09:45:58.862Z,100427.16
2022-08-16T09:48:37.119Z,100421.41
2022-08-16T09:51:13.239Z,100416.31
2022-08-16T09:53:41.400Z,100421.47
2022-08-16T09:56:26.555Z,100418.28
2022-08-16T09:59:05.144Z,100422.66
2022-08-16T10:01:43.613Z,100416.09
2022-08-16T10:04:31.618Z,100420.59
2022-08-16T10:07:15.212Z,100412.59
2022-08-16T10:09:55.852Z,100407.66
2022-08-16T10:12:46.525Z,100408.00
2022-08-16T10:15:22.711Z,100407.91
2022-08-16T10:18:01.594Z,100407.44
2022-08-16T10:20:37.764Z,100406.50
2022-08-16T10:23:07.119Z,100407.13
2022-08-16T10:27:16.670Z,100406.94
2022-08-16T10:28:30.344Z,100399.53
2022-08-16T10:31:04.116Z,100413.66
2022-08-16T10:33:34.120Z,100410.56
2022-08-16T10:36:05.511Z,100410.13
2022-08-16T10:38:37.303Z,100406.59
2022-08-16T10:41:08.361Z,100405.22
2022-08-16T10:43:38.700Z,100406.91
2022-08-16T10:46:39.188Z,100398.16
2022-08-16T10:48:54.925Z,100410.94
2022-08-16T10:51:33.387Z,100413.78
2022-08-16T10:54:00.954Z,100400.94
2022-08-16T10:56:52.834Z,100404.75
2022-08-16T10:59:39.147Z,100409.38
2022-08-16T11:07:43.622Z,100408.91
2022-08-16T11:19:06.056Z,100409.16
2022-08-16T11:24:41.217Z,100414.56
2022-08-16T11:27:23.473Z,100410.41
2022-08-16T11:29:55.299Z,100419.34
2022-08-16T11:32:31.719Z,100420.41
2022-08-16T11:35:10.189Z,100422.66
2022-08-16T11:40:33.439Z,100423.09
2022-08-16T11:43:04.565Z,100424.13
2022-08-16T11:45:33.730Z,100424.56
2022-08-16T11:48:03.506Z,100411.25
2022-08-16T11:50:33.383Z,100412.28
2022-08-16T11:53:05.183Z,100420.63
2022-08-16T11:55:34.145Z,100414.16
2022-08-16T11:58:07.813Z,100414.34
2022-08-16T12:00:51.052Z,100415.78
2022-08-16T12:03:19.114Z,100425.53
2022-08-16T12:05:46.463Z,100410.81
2022-08-16T12:08:18.902Z,100420.56
2022-08-16T12:10:48.636Z,100420.38
2022-08-16T12:13:15.321Z,100424.56
2022-08-16T12:15:43.432Z,100415.34
2022-08-16T12:18:20.464Z,100414.06
2022-08-16T12:20:47.417Z,100413.88
2022-08-16T12:23:17.357Z,100416.19
2022-08-16T12:25:44.305Z,100416.88
2022-08-16T12:28:11.082Z,100412.69
2022-08-16T12:30:41.302Z,100405.00
2022-08-16T12:33:09.815Z,100417.06
2022-08-16T12:35:38.365Z,100421.63
2022-08-16T12:38:08.539Z,100423.09
2022-08-16T12:40:56.996Z,100421.00
2022-08-16T12:43:25.257Z,100423.50
2022-08-16T12:45:54.273Z,100417.28
2022-08-16T12:48:43.832Z,100411.88
2022-08-16T12:51:22.103Z,100429.13
2022-08-16T12:53:52.619Z,100420.41
2022-08-16T12:56:21.704Z,100422.25
2022-08-16T12:58:53.232Z,100416.69
2022-08-16T13:01:30.540Z,100416.88
2022-08-16T13:04:21.367Z,100419.38
2022-08-16T13:06:48.505Z,100416.22
2022-08-16T13:09:20.878Z,100416.44
2022-08-16T13:11:59.803Z,100411.44
2022-08-16T13:14:36.202Z,100408.47
2022-08-16T13:17:06.908Z,100404.28
2022-08-16T13:19:56.282Z,100404.50
2022-08-16T13:22:22.667Z,100411.19
2022-08-16T13:24:51.878Z,100398.69
2022-08-16T13:27:18.407Z,100404.56
2022-08-16T13:29:50.040Z,100407.28
2022-08-16T13:32:39.554Z,100411.81
2022-08-16T13:35:08.161Z,100406.59
2022-08-16T13:37:38.607Z,100404.47
2022-08-16T13:40:09.249Z,100408.84
2022-08-16T13:42:47.391Z,100401.53
2022-08-16T13:45:15.982Z,100394.06
2022-08-16T13:47:43.702Z,100397.81
2022-08-16T13:50:11.661Z,100400.94
2022-08-16T13:52:39.787Z,100398.44
2022-08-16T13:55:17.904Z,100403.41
2022-08-16T13:58:34.263Z,100404.06
2022-08-16T14:00:31.693Z,100403.22
2022-08-16T14:02:59.218Z,100403.66
2022-08-16T14:05:26.873Z,100395.91
2022-08-16T14:07:53.912Z,100409.25
2022-08-16T14:10:21.203Z,100411.16
2022-08-16T14:12:47.954Z,100409.69
2022-08-16T14:15:15.956Z,100411.16
2022-08-16T14:18:15.233Z,100414.06
2022-08-16T14:20:30.009Z,100410.28
2022-08-16T14:22:56.969Z,100404.03
2022-08-16T14:25:24.777Z,100408.31
2022-08-16T14:27:54.545Z,100406.69
2022-08-16T14:30:24.266Z,100412.13
2022-08-16T14:32:51.795Z,100411.31
2022-08-16T14:35:36.451Z,100403.88
2022-08-16T14:38:10.141Z,100406.97
2022-08-16T14:40:42.508Z,100406.97
2022-08-16T14:43:15.468Z,100405.97
2022-08-16T14:45:42.773Z,100411.56
2022-08-16T14:48:09.622Z,100407.59
2022-08-16T14:50:37.137Z,100400.09
2022-08-16T14:53:07.329Z,100410.91
2022-08-16T14:55:36.487Z,100407.34
2022-08-16T14:58:04.408Z,100405.09
2022-08-16T15:00:36.642Z,100405.25
2022-08-16T15:03:06.803Z,100395.66
2022-08-16T15:05:38.776Z,100392.06
2022-08-16T15:08:05.901Z,100390.75
2022-08-16T15:10:32.968Z,100393.44
2022-08-16T15:13:00.860Z,100387.19
2022-08-16T15:15:29.694Z,100389.94
2022-08-16T15:17:57.504Z,100383.94
2022-08-16T15:20:29.552Z,100389.75
2022-08-16T15:22:58.961Z,100381.84
2022-08-16T15:25:41.316Z,100389.72
2022-08-16T15:28:23.532Z,100398.41
2022-08-16T15:31:00.563Z,100400.72
2022-08-16T15:33:29.506Z,100400.06
2022-08-16T15:36:00.081Z,100401.47
2022-08-16T15:38:57.830Z,100391.75
2022-08-16T15:41:31.430Z,100396.34
2022-08-16T15:44:05.576Z,100397.00
2022-08-16T15:46:54.574Z,100408.72
2022-08-16T15:49:25.238Z,100398.72
2022-08-16T15:52:01.888Z,100400.16
2022-08-16T15:54:32.545Z,100410.81
2022-08-16T15:57:11.488Z,100401.22
2022-08-16T15:59:49.398Z,100395.94
2022-08-16T16:02:29.844Z,100402.19
2022-08-16T16:05:07.346Z,100406.69
2022-08-16T16:07:37.637Z,100409.59
2022-08-16T16:10:13.293Z,100402.38
2022-08-16T16:12:51.769Z,100405.84
2022-08-16T16:15:25.142Z,100403.09
2022-08-16T16:17:53.671Z,100408.09
2022-08-16T16:20:24.467Z,100406.69
2022-08-16T16:22:56.444Z,100406.47
2022-08-16T16:25:24.424Z,100406.63
2022-08-16T16:27:55.795Z,100403.66
2022-08-16T16:30:37.149Z,100404.34
2022-08-16T16:33:20.888Z,100404.28
2022-08-16T16:35:55.466Z,100401.75
2022-08-16T16:38:28.661Z,100403.00
2022-08-16T16:40:55.667Z,100395.06
2022-08-16T16:43:26.084Z,100400.25
2022-08-16T16:45:58.290Z,100407.75
2022-08-16T16:48:29.579Z,100399.06
2022-08-16T16:51:08.714Z,100401.56
2022-08-16T16:53:39.317Z,100405.47
2022-08-16T16:56:08.908Z,100406.25
2022-08-16T16:58:56.130Z,100406.72
2022-08-16T17:01:35.005Z,100402.94
2022-08-16T17:04:19.858Z,100396.06
2022-08-16T17:06:53.390Z,100397.31
2022-08-16T17:09:23.999Z,100403.81
2022-08-16T17:11:55.582Z,100396.56
2022-08-16T17:14:33.415Z,100397.56
2022-08-16T17:17:09.204Z,100398.59
2022-08-16T17:19:40.998Z,100390.31
2022-08-16T17:22:14.316Z,100397.03
2022-08-16T17:24:50.559Z,100400.00
2022-08-16T17:27:32.884Z,100393.34
2022-08-16T17:30:15.847Z,100399.38
2022-08-16T17:32:48.009Z,100390.13
2022-08-16T17:35:18.392Z,100397.44
2022-08-16T17:37:50.838Z,100388.50
2022-08-16T17:40:40.280Z,100396.66
2022-08-16T17:43:09.465Z,100397.50
2022-08-16T17:45:38.241Z,100396.22
2022-08-16T17:48:05.797Z,100400.84
2022-08-16T17:50:32.732Z,100401.06
2022-08-16T17:52:59.921Z,100403.41
2022-08-16T17:55:35.976Z,100401.72
2022-08-16T17:58:21.270Z,100402.38
2022-08-16T18:00:53.196Z,100399.31
2022-08-16T18:03:54.376Z,100402.00
2022-08-16T18:06:13.265Z,100405.53
2022-08-16T18:08:41.480Z,100405.34
2022-08-16T18:11:10.002Z,100405.97
2022-08-16T18:13:42.751Z,100408.28
2022-08-16T18:16:09.719Z,100409.13
2022-08-16T18:18:37.265Z,100402.66
2022-08-16T18:21:22.722Z,100408.50
2022-08-16T18:23:49.450Z,100417.84
2022-08-16T18:26:16.093Z,100408.50
2022-08-16T18:28:42.781Z,100406.22
2022-08-16T18:31:09.574Z,100408.31
2022-08-16T18:33:43.171Z,100407.47
2022-08-16T18:36:21.124Z,100418.31
2022-08-16T18:38:49.607Z,100418.53
2022-08-16T18:41:16.855Z,100416.88
2022-08-16T18:44:23.718Z,100418.09
2022-08-16T18:46:30.631Z,100422.25
2022-08-16T18:48:57.202Z,100413.94
2022-08-16T18:51:25.458Z,100421.00
2022-08-16T18:53:52.942Z,100433.91
2022-08-16T18:56:19.640Z,100433.50
2022-08-16T18:58:46.253Z,100427.69
2022-08-16T19:01:13.022Z,100432.03
2022-08-16T19:03:39.656Z,100431.00
2022-08-16T19:06:13.863Z,100430.75
2022-08-16T19:08:43.669Z,100441.81
2022-08-16T19:11:14.093Z,100443.84
2022-08-16T19:13:44.017Z,100438.25
2022-08-16T19:16:11.976Z,100447.16
2022-08-16T19:18:38.907Z,100448.66
2022-08-16T19:21:06.540Z,100447.78
2022-08-16T19:23:35.914Z,100447.41
2022-08-16T19:26:25.874Z,100454.69
2022-08-16T19:28:59.513Z,100460.47
2022-08-16T19:31:33.170Z,100462.28
2022-08-16T19:34:01.264Z,100456.25
2022-08-16T19:36:35.494Z,100463.31
2022-08-16T19:39:08.592Z,100467.00
2022-08-16T19:41:37.994Z,100475.28
2022-08-16T19:44:06.049Z,100471.94
2022-08-16T19:46:33.421Z,100464.25
2022-08-16T19:49:00.510Z,100475.25
2022-08-16T19:51:27.398Z,100477.97
2022-08-16T19:53:53.974Z,100476.72
2022-08-16T19:56:23.078Z,100482.50
2022-08-16T19:59:16.432Z,100488.91
2022-08-16T20:01:41.996Z,100495.06
2022-08-16T20:04:12.082Z,100492.53
2022-08-16T20:06:39.914Z,100494.41
2022-08-16T20:09:07.145Z,100497.91
2022-08-16T20:11:34.957Z,100502.88
2022-08-16T20:14:02.024Z,100500.34
2022-08-16T20:16:28.960Z,100501.22
2022-08-16T20:18:55.493Z,100509.94
2022-08-16T20:21:22.134Z,100507.44
2022-08-16T20:23:48.715Z,100512.63
2022-08-16T20:26:15.372Z,100502.88
2022-08-16T20:28:52.287Z,100511.78
2022-08-16T20:31:20.312Z,100519.25
2022-08-16T20:33:46.962Z,100521.06
2022-08-16T20:36:16.306Z,100520.66
2022-08-16T20:38:46.639Z,100509.25
2022-08-16T20:41:13.386Z,100514.63
2022-08-16T20:43:39.985Z,100513.19
2022-08-16T20:46:06.674Z,100521.00
2022-08-16T20:48:33.215Z,100523.72
2022-08-16T20:50:59.878Z,100524.41
2022-08-16T20:53:26.438Z,100526.03
2022-08-16T20:55:53.086Z,100525.78
2022-08-16T20:58:19.641Z,100514.75
2022-08-16T21:00:47.249Z,100515.97
2022-08-16T21:03:14.261Z,100521.72
2022-08-16T21:05:41.247Z,100520.50
2022-08-16T21:08:50.286Z,100526.03
2022-08-16T21:10:56.334Z,100531.03
2022-08-16T21:13:25.575Z,100526.66
2022-08-16T21:15:52.471Z,100527.69
2022-08-16T21:18:19.095Z,100531.28
2022-08-16T21:20:45.664Z,100516.34
2022-08-16T21:23:12.182Z,100516.97
2022-08-16T21:25:49.850Z,100520.88
2022-08-16T21:28:39.585Z,100523.75
2022-08-16T21:31:09.777Z,100520.50
2022-08-16T21:33:36.638Z,100507.59
2022-08-16T21:36:03.754Z,100508.25
2022-08-16T21:38:31.145Z,100501.63
2022-08-16T21:40:59.651Z,100509.91
2022-08-16T21:43:28.701Z,100518.59
2022-08-16T21:45:55.989Z,100512.16
2022-08-16T21:48:34.653Z,100516.53
2022-08-16T21:51:08.484Z,100521.47
2022-08-16T21:53:36.391Z,100516.72
2022-08-16T21:56:05.700Z,100511.66
2022-08-16T21:58:32.485Z,100514.34
2022-08-16T22:01:00.440Z,100511.84
2022-08-16T22:03:27.699Z,100510.84
2022-08-16T22:06:13.590Z,100510.53
2022-08-16T22:08:50.366Z,100520.22
2022-08-16T22:11:25.761Z,100524.78
2022-08-16T22:13:58.746Z,100521.88
2022-08-16T22:16:32.096Z,100526.53
2022-08-16T22:18:59.703Z,100520.44
2022-08-16T22:21:26.825Z,100524.03
2022-08-16T22:23:57.846Z,100521.72
2022-08-16T22:26:36.782Z,100527.94
2022-08-16T22:29:09.494Z,100526.06
2022-08-16T22:31:38.198Z,100522.09
2022-08-16T22:34:05.482Z,100521.72
2022-08-16T22:36:33.634Z,100524.16
2022-08-16T22:39:03.546Z,100529.19
2022-08-16T22:41:32.561Z,100519.81
2022-08-16T22:44:01.077Z,100524.47
2022-08-16T22:46:28.295Z,100516.16
2022-08-16T22:48:54.936Z,100521.25
2022-08-16T22:51:24.405Z,100520.72
2022-08-16T22:53:51.643Z,100511.91
2022-08-16T22:56:19.814Z,100522.94
2022-08-16T22:58:46.841Z,100525.13
2022-08-16T23:01:15.678Z,100518.63
2022-08-16T23:03:42.802Z,100522.16
2022-08-16T23:06:12.311Z,100521.66
2022-08-16T23:08:41.460Z,100521.84
2022-08-16T23:11:11.993Z,100514.34
2022-08-16T23:13:52.661Z,100517.44
2022-08-16T23:16:34.518Z,100508.72
2022-08-16T23:19:07.005Z,100513.19
2022-08-16T23:21:34.744Z,100511.06
2022-08-16T23:24:01.617Z,100502.69
2022-08-16T23:26:44.301Z,100500.13
2022-08-16T23:29:23.796Z,100508.56
2022-08-16T23:31:58.092Z,100502.69
2022-08-16T23:34:26.967Z,100503.06
2022-08-16T23:36:53.960Z,100497.91
2022-08-16T23:39:20.709Z,100492.88
2022-08-16T23:41:47.245Z,100497.63
2022-08-16T23:44:56.477Z,100497.44
2022-08-16T23:47:00.588Z,100492.81
2022-08-16T23:49:58.643Z,100493.81
2022-08-16T23:52:14.293Z,100485.38
2022-08-16T23:54:40.847Z,100485.19
2022-08-16T23:57:08.334Z,100482.50
2022-08-16T23:59:41.083Z,100483.25
